createdAt,value
2023-10-14T00:03:43.788Z,4.13
2023-10-14T00:08:55.672Z,4.00
2023-10-14T00:14:00.130Z,3.83
2023-10-14T00:19:05.992Z,3.60
2023-10-14T00:24:09.150Z,3.90
2023-10-14T00:29:20.889Z,4.20
2023-10-14T00:34:27.146Z,4.23
2023-10-14T00:39:32.670Z,4.30
2023-10-14T00:44:39.165Z,4.00
2023-10-14T00:49:44.053Z,4.00
2023-10-14T00:54:59.928Z,3.57
2023-10-14T01:00:10.982Z,4.27
2023-10-14T01:05:19.575Z,3.70
2023-10-14T01:10:26.729Z,4.20
2023-10-14T01:15:31.935Z,3.97
2023-10-14T01:20:39.074Z,3.50
2023-10-14T01:25:48.164Z,3.90
2023-10-14T01:31:32.164Z,3.50
2023-10-14T01:36:39.249Z,3.67
2023-10-14T01:41:45.012Z,4.40
2023-10-14T01:46:49.069Z,3.97
2023-10-14T01:51:52.704Z,3.60
2023-10-14T01:56:57.553Z,3.80
2023-10-14T02:02:00.553Z,4.40
2023-10-14T02:07:19.124Z,3.77
2023-10-14T02:12:23.741Z,3.90
2023-10-14T02:17:27.030Z,4.07
2023-10-14T02:22:31.667Z,3.83
2023-10-14T02:27:36.228Z,4.10
2023-10-14T02:32:39.230Z,3.80
2023-10-14T02:37:42.648Z,4.27
2023-10-14T02:42:47.815Z,4.23
2023-10-14T02:47:51.223Z,4.23
2023-10-14T02:53:02.400Z,4.60
2023-10-14T02:58:07.880Z,5.20
2023-10-14T03:03:16.535Z,4.53
2023-10-14T03:08:20.071Z,4.70
2023-10-14T03:13:25.034Z,4.90
2023-10-14T03:18:38.698Z,5.10
2023-10-14T03:23:43.155Z,4.70
2023-10-14T03:28:51.574Z,4.27
2023-10-14T03:34:00.053Z,5.13
2023-10-14T03:39:18.181Z,5.33
2023-10-14T03:44:24.985Z,5.07
2023-10-14T03:49:28.069Z,5.57
2023-10-14T03:54:42.606Z,5.03
2023-10-14T03:59:49.536Z,5.03
2023-10-14T04:04:59.404Z,5.07
2023-10-14T04:10:06.487Z,5.67
2023-10-14T04:15:34.713Z,5.00
2023-10-14T04:20:38.359Z,5.20
2023-10-14T04:25:43.899Z,5.10
2023-10-14T04:30:48.749Z,5.90
2023-10-14T04:36:00.048Z,5.00
2023-10-14T04:41:04.252Z,4.97
2023-10-14T04:46:17.323Z,5.10
2023-10-14T04:51:21.151Z,5.20
2023-10-14T04:56:31.343Z,5.30
2023-10-14T05:01:36.017Z,5.37
2023-10-14T05:06:42.696Z,5.93
2023-10-14T05:11:48.893Z,5.37
2023-10-14T05:16:55.671Z,5.30
2023-10-14T05:22:04.897Z,4.93
2023-10-14T05:27:10.033Z,5.87
2023-10-14T05:32:16.668Z,5.00
2023-10-14T05:37:22.783Z,5.40
2023-10-14T05:42:26.361Z,4.80
2023-10-14T05:47:30.772Z,5.73
2023-10-14T05:52:34.518Z,4.93
2023-10-14T05:57:40.913Z,5.53
2023-10-14T06:02:46.190Z,5.47
2023-10-14T06:07:49.231Z,4.90
2023-10-14T06:12:53.129Z,5.40
2023-10-14T06:17:58.664Z,6.33
2023-10-14T06:23:01.717Z,6.13
2023-10-14T06:28:06.095Z,5.10
2023-10-14T06:33:13.007Z,5.33
2023-10-14T06:38:21.043Z,5.33
2023-10-14T06:43:28.966Z,5.70
2023-10-14T06:48:34.069Z,5.37
2023-10-14T06:53:37.069Z,5.43
2023-10-14T06:58:40.596Z,5.67
2023-10-14T07:03:45.106Z,5.40
2023-10-14T07:08:50.110Z,6.27
2023-10-14T07:13:55.825Z,6.70
2023-10-14T07:19:01.251Z,5.90
2023-10-14T07:24:07.686Z,5.90
2023-10-14T07:29:11.461Z,6.10
2023-10-14T07:34:17.863Z,3.60
2023-10-14T07:39:29.917Z,3.03
2023-10-14T07:44:32.806Z,2.30
2023-10-14T07:49:39.253Z,2.03
2023-10-14T07:54:43.668Z,1.70
2023-10-14T07:59:46.714Z,1.37
2023-10-14T08:04:54.604Z,1.30
2023-10-14T08:09:57.629Z,1.00
2023-10-14T08:15:00.552Z,1.00
2023-10-14T08:20:13.538Z,1.10
2023-10-14T08:25:19.991Z,0.80
2023-10-14T08:30:25.302Z,1.10
2023-10-14T08:35:30.356Z,1.00
2023-10-14T08:40:33.569Z,0.80
2023-10-14T08:45:40.239Z,0.90
2023-10-14T08:50:46.464Z,0.80
2023-10-14T08:55:49.609Z,0.93
2023-10-14T09:00:55.191Z,0.83
2023-10-14T09:06:00.092Z,1.10
2023-10-14T09:11:04.517Z,0.70
2023-10-14T09:16:11.303Z,1.03
2023-10-14T09:21:15.753Z,0.97
2023-10-14T09:26:19.628Z,0.77
2023-10-14T09:31:27.476Z,1.20
2023-10-14T09:36:37.039Z,0.93
2023-10-14T09:41:40.507Z,1.37
2023-10-14T09:46:44.548Z,1.00
2023-10-14T09:51:49.502Z,1.30
2023-10-14T09:56:54.282Z,1.00
2023-10-14T10:01:57.312Z,1.23
2023-10-14T10:07:16.870Z,3.10
2023-10-14T10:12:22.013Z,1.20
2023-10-14T10:17:25.331Z,1.70
2023-10-14T10:22:41.089Z,1.40
2023-10-14T10:27:46.103Z,1.37
2023-10-14T10:32:51.441Z,1.57
2023-10-14T10:37:57.641Z,1.57
2023-10-14T10:43:07.137Z,1.90
2023-10-14T10:48:15.341Z,1.40
2023-10-14T10:53:22.286Z,1.70
2023-10-14T10:58:26.562Z,1.80
2023-10-14T11:03:30.590Z,2.03
2023-10-14T11:08:36.812Z,2.17
2023-10-14T11:13:40.570Z,1.70
2023-10-14T11:18:50.566Z,2.00
2023-10-14T11:23:55.576Z,1.70
2023-10-14T11:29:00.295Z,1.67
2023-10-14T11:34:04.118Z,1.60
2023-10-14T11:39:13.936Z,1.90
2023-10-14T11:44:19.643Z,1.70
2023-10-14T11:49:22.824Z,1.17
2023-10-14T11:54:28.755Z,1.80
2023-10-14T11:59:31.656Z,1.77
2023-10-14T12:04:34.829Z,1.60
2023-10-14T12:09:39.374Z,1.63
2023-10-14T12:14:42.323Z,1.70
2023-10-14T12:19:45.229Z,1.90
2023-10-14T12:24:49.734Z,1.87
2023-10-14T12:29:52.683Z,1.83
2023-10-14T12:34:55.572Z,2.20
2023-10-14T12:40:05.733Z,1.47
2023-10-14T12:45:14.067Z,1.90
2023-10-14T12:50:21.260Z,1.67
2023-10-14T12:55:25.890Z,2.00
2023-10-14T13:00:30.728Z,1.87
2023-10-14T13:05:33.766Z,1.73
2023-10-14T13:10:38.292Z,1.50
2023-10-14T13:15:41.554Z,1.53
2023-10-14T13:20:46.515Z,1.80
2023-10-14T13:25:50.814Z,1.67
2023-10-14T13:30:55.513Z,1.60
2023-10-14T13:35:58.773Z,1.97
2023-10-14T13:41:04.438Z,1.50
2023-10-14T13:46:07.641Z,1.80
2023-10-14T13:51:12.496Z,1.60
2023-10-14T13:56:16.861Z,1.63
2023-10-14T14:01:19.859Z,2.40
2023-10-14T14:06:26.807Z,1.80
2023-10-14T14:11:31.069Z,2.20
2023-10-14T14:16:37.453Z,1.73
2023-10-14T14:21:44.869Z,1.43
2023-10-14T14:26:50.165Z,1.33
2023-10-14T14:31:53.151Z,1.77
2023-10-14T14:36:56.118Z,1.33
2023-10-14T14:42:02.221Z,1.60
2023-10-14T14:47:05.429Z,1.30
2023-10-14T14:52:08.538Z,1.70
2023-10-14T14:57:12.861Z,1.83
2023-10-14T15:02:18.508Z,1.97
2023-10-14T15:07:22.397Z,1.60
2023-10-14T15:12:27.388Z,2.00
2023-10-14T15:17:31.232Z,1.70
2023-10-14T15:22:34.419Z,2.63
2023-10-14T15:27:38.772Z,1.93
2023-10-14T15:32:45.259Z,2.63
2023-10-14T15:37:49.328Z,2.07
2023-10-14T15:42:53.798Z,2.40
2023-10-14T15:47:58.444Z,2.30
2023-10-14T15:53:01.390Z,2.20
2023-10-14T15:58:06.653Z,1.90
2023-10-14T16:03:10.507Z,2.37
2023-10-14T16:08:17.382Z,2.03
2023-10-14T16:13:24.124Z,2.70
2023-10-14T16:18:27.285Z,2.40
2023-10-14T16:23:30.162Z,7.13
2023-10-14T16:28:35.495Z,3.30
2023-10-14T16:33:38.565Z,3.23
2023-10-14T16:38:44.569Z,2.53
2023-10-14T16:43:48.928Z,2.60
2023-10-14T16:48:52.858Z,2.60
2023-10-14T16:53:55.788Z,3.40
2023-10-14T16:59:00.255Z,2.40
2023-10-14T17:04:05.839Z,2.00
2023-10-14T17:09:11.859Z,1.70
2023-10-14T17:14:18.019Z,2.60
2023-10-14T17:19:22.421Z,2.43
2023-10-14T17:24:28.510Z,2.63
2023-10-14T17:29:32.833Z,2.60
2023-10-14T17:34:36.135Z,2.83
2023-10-14T17:39:39.518Z,2.77
2023-10-14T17:44:45.331Z,2.40
2023-10-14T17:49:48.308Z,2.50
2023-10-14T17:54:54.834Z,2.50
2023-10-14T17:59:59.246Z,2.13
2023-10-14T18:05:05.708Z,2.60
2023-10-14T18:10:09.569Z,2.40
2023-10-14T18:15:18.222Z,2.57
2023-10-14T18:20:26.758Z,2.97
2023-10-14T18:25:30.500Z,2.87
2023-10-14T18:30:36.055Z,3.10
2023-10-14T18:35:40.864Z,3.13
2023-10-14T18:40:47.717Z,2.70
2023-10-14T18:45:52.717Z,1.93
2023-10-14T18:50:55.751Z,3.43
2023-10-14T18:56:00.612Z,2.70
2023-10-14T19:01:07.154Z,2.30
2023-10-14T19:06:10.109Z,3.70
2023-10-14T19:11:13.534Z,3.10
2023-10-14T19:16:18.189Z,2.43
2023-10-14T19:21:21.440Z,2.60
2023-10-14T19:26:24.383Z,4.00
2023-10-14T19:31:28.629Z,2.70
2023-10-14T19:36:33.448Z,3.40
2023-10-14T19:41:36.568Z,3.40
2023-10-14T19:46:40.974Z,4.70
2023-10-14T19:51:43.870Z,4.77
2023-10-14T19:56:46.785Z,3.10
2023-10-14T20:01:51.509Z,3.03
2023-10-14T20:06:54.455Z,2.93
2023-10-14T20:11:57.348Z,6.50
2023-10-14T20:17:01.699Z,3.70
2023-10-14T20:22:06.231Z,3.83
2023-10-14T20:27:09.160Z,3.40
2023-10-14T20:32:14.825Z,3.40
2023-10-14T20:37:17.925Z,4.13
2023-10-14T20:42:21.108Z,3.30
2023-10-14T20:47:25.618Z,3.00
2023-10-14T20:52:28.555Z,3.67
2023-10-14T20:57:31.885Z,2.60
2023-10-14T21:02:37.929Z,2.77
2023-10-14T21:07:40.861Z,2.30
2023-10-14T21:12:45.040Z,3.50
2023-10-14T21:17:49.401Z,3.63
2023-10-14T21:22:53.576Z,3.47
2023-10-14T21:27:57.499Z,2.40
2023-10-14T21:33:01.944Z,3.90
2023-10-14T21:38:05.976Z,2.43
2023-10-14T21:43:08.872Z,2.77
2023-10-14T21:48:13.557Z,3.30
2023-10-14T21:53:16.505Z,3.53
2023-10-14T21:58:19.433Z,3.53
2023-10-14T22:03:24.383Z,3.93
2023-10-14T22:08:27.390Z,3.57
2023-10-14T22:13:30.357Z,3.37
2023-10-14T22:18:36.896Z,3.80
2023-10-14T22:23:39.772Z,2.60
2023-10-14T22:28:42.707Z,2.27
2023-10-14T22:33:46.994Z,2.33
2023-10-14T22:38:51.027Z,2.17
2023-10-14T22:43:54.417Z,2.70
2023-10-14T22:48:58.766Z,2.30
2023-10-14T22:54:01.614Z,1.60
2023-10-14T22:59:04.706Z,1.50
2023-10-14T23:04:09.853Z,1.80
2023-10-14T23:09:15.007Z,1.80
2023-10-14T23:14:17.995Z,1.60
2023-10-14T23:19:22.276Z,1.50
2023-10-14T23:24:25.331Z,1.60
2023-10-14T23:29:28.339Z,1.50
2023-10-14T23:34:32.672Z,1.80
2023-10-14T23:39:35.539Z,1.70
2023-10-14T23:44:38.510Z,2.30
2023-10-14T23:49:43.021Z,1.40
2023-10-14T23:54:45.981Z,1.87
2023-10-14T23:59:49.238Z,1.57
